sensor_id;sensor_type;location;lat;lon;timestamp;pressure;altitude;pressure_sealevel;temperature;humidity
68230;BME280;55048;52.220;5.160;2023-03-02T00:02:16;102505.94;;;2.76;81.70
68230;BME280;55048;52.220;5.160;2023-03-02T00:04:47;102474.50;;;2.57;82.94
68230;BME280;55048;52.220;5.160;2023-03-02T00:07:18;102520.47;;;2.70;84.20
68230;BME280;55048;52.220;5.160;2023-03-02T00:09:45;102336.47;;;1.50;85.67
68230;BME280;55048;52.220;5.160;2023-03-02T00:12:11;102403.88;;;2.07;83.86
68230;BME280;55048;52.220;5.160;2023-03-02T00:14:37;102219.56;;;0.82;85.49
68230;BME280;55048;52.220;5.160;2023-03-02T00:17:03;102457.63;;;2.02;86.79
68230;BME280;55048;52.220;5.160;2023-03-02T00:19:29;102539.41;;;2.74;87.41
68230;BME280;55048;52.220;5.160;2023-03-02T00:21:54;102429.44;;;2.04;87.48
68230;BME280;55048;52.220;5.160;2023-03-02T00:24:20;102386.22;;;1.99;87.47
68230;BME280;55048;52.220;5.160;2023-03-02T00:26:45;102479.19;;;2.53;87.15
68230;BME280;55048;52.220;5.160;2023-03-02T00:29:11;102517.63;;;2.54;90.10
68230;BME280;55048;52.220;5.160;2023-03-02T00:31:37;102189.22;;;0.69;88.76
68230;BME280;55048;52.220;5.160;2023-03-02T00:34:03;102471.59;;;2.50;89.12
68230;BME280;55048;52.220;5.160;2023-03-02T00:36:28;102514.38;;;2.70;89.11
68230;BME280;55048;52.220;5.160;2023-03-02T00:38:54;102360.69;;;1.82;88.73
68230;BME280;55048;52.220;5.160;2023-03-02T00:41:20;102524.16;;;2.87;88.17
68230;BME280;55048;52.220;5.160;2023-03-02T00:43:46;102402.06;;;2.17;88.03
68230;BME280;55048;52.220;5.160;2023-03-02T00:46:17;102522.34;;;2.88;88.96
68230;BME280;55048;52.220;5.160;2023-03-02T00:48:44;102519.00;;;2.95;88.15
68230;BME280;55048;52.220;5.160;2023-03-02T00:51:10;102298.53;;;1.55;88.92
68230;BME280;55048;52.220;5.160;2023-03-02T00:53:37;102508.94;;;2.91;88.90
68230;BME280;55048;52.220;5.160;2023-03-02T00:56:03;102431.56;;;2.38;89.79
68230;BME280;55048;52.220;5.160;2023-03-02T00:58:31;102504.25;;;2.85;88.76
68230;BME280;55048;52.220;5.160;2023-03-02T01:00:58;102404.47;;;2.38;89.02
68230;BME280;55048;52.220;5.160;2023-03-02T01:03:24;102463.09;;;2.75;88.46
68230;BME280;55048;52.220;5.160;2023-03-02T01:05:49;102513.91;;;2.84;88.54
68230;BME280;55048;52.220;5.160;2023-03-02T01:08:23;102446.28;;;2.59;88.81
68230;BME280;55048;52.220;5.160;2023-03-02T01:10:49;102352.81;;;2.01;88.80
68230;BME280;55048;52.220;5.160;2023-03-02T01:13:16;102376.63;;;2.17;88.13
68230;BME280;55048;52.220;5.160;2023-03-02T01:15:41;102503.63;;;3.00;87.73
68230;BME280;55048;52.220;5.160;2023-03-02T01:18:07;102484.59;;;2.89;87.31
68230;BME280;55048;52.220;5.160;2023-03-02T01:20:32;102430.56;;;2.49;87.64
68230;BME280;55048;52.220;5.160;2023-03-02T01:22:58;102438.13;;;2.62;87.56
68230;BME280;55048;52.220;5.160;2023-03-02T01:25:23;102473.72;;;2.27;88.50
68230;BME280;55048;52.220;5.160;2023-03-02T01:27:49;102412.69;;;2.25;87.88
68230;BME280;55048;52.220;5.160;2023-03-02T01:30:14;102472.53;;;2.59;88.18
68230;BME280;55048;52.220;5.160;2023-03-02T01:32:40;102231.97;;;1.09;89.21
68230;BME280;55048;52.220;5.160;2023-03-02T01:35:06;102476.97;;;2.58;88.63
68230;BME280;55048;52.220;5.160;2023-03-02T01:37:31;102496.53;;;2.73;88.98
68230;BME280;55048;52.220;5.160;2023-03-02T01:39:57;102492.47;;;2.61;88.51
68230;BME280;55048;52.220;5.160;2023-03-02T01:42:22;102492.28;;;2.72;88.21
68230;BME280;55048;52.220;5.160;2023-03-02T01:44:52;102359.41;;;1.95;87.79
68230;BME280;55048;52.220;5.160;2023-03-02T01:47:24;102430.31;;;2.33;88.17
68230;BME280;55048;52.220;5.160;2023-03-02T01:52:33;102477.94;;;2.57;87.78
68230;BME280;55048;52.220;5.160;2023-03-02T01:55:06;102479.88;;;2.55;87.53
68230;BME280;55048;52.220;5.160;2023-03-02T01:57:35;102471.19;;;2.45;87.77
68230;BME280;55048;52.220;5.160;2023-03-02T02:00:15;102495.22;;;2.60;88.51
68230;BME280;55048;52.220;5.160;2023-03-02T02:02:45;102470.25;;;2.36;88.88
68230;BME280;55048;52.220;5.160;2023-03-02T02:05:18;102441.28;;;2.18;88.28
68230;BME280;55048;52.220;5.160;2023-03-02T02:07:46;102433.72;;;2.15;87.49
68230;BME280;55048;52.220;5.160;2023-03-02T02:10:12;102379.34;;;1.88;87.21
68230;BME280;55048;52.220;5.160;2023-03-02T02:12:37;102438.34;;;2.31;87.08
68230;BME280;55048;52.220;5.160;2023-03-02T02:15:03;102392.84;;;1.93;87.47
68230;BME280;55048;52.220;5.160;2023-03-02T02:17:30;102401.13;;;1.98;87.86
68230;BME280;55048;52.220;5.160;2023-03-02T02:28:50;102479.63;;;2.48;87.55
68230;BME280;55048;52.220;5.160;2023-03-02T02:31:32;102472.44;;;2.41;87.46
68230;BME280;55048;52.220;5.160;2023-03-02T02:34:05;102467.31;;;2.49;86.47
68230;BME280;55048;52.220;5.160;2023-03-02T02:36:39;102405.97;;;2.03;86.20
68230;BME280;55048;52.220;5.160;2023-03-02T02:39:15;102473.41;;;2.49;86.48
68230;BME280;55048;52.220;5.160;2023-03-02T02:41:43;102445.69;;;2.27;86.82
68230;BME280;55048;52.220;5.160;2023-03-02T02:44:15;102415.06;;;2.09;86.56
68230;BME280;55048;52.220;5.160;2023-03-02T02:46:42;102471.63;;;2.40;87.92
68230;BME280;55048;52.220;5.160;2023-03-02T02:49:36;102464.75;;;2.29;86.83
68230;BME280;55048;52.220;5.160;2023-03-02T02:52:04;102411.78;;;1.97;87.41
68230;BME280;55048;52.220;5.160;2023-03-02T02:54:31;102456.47;;;2.24;87.55
68230;BME280;55048;52.220;5.160;2023-03-02T02:57:00;102368.59;;;1.62;87.52
68230;BME280;55048;52.220;5.160;2023-03-02T02:59:36;102464.34;;;2.34;87.13
68230;BME280;55048;52.220;5.160;2023-03-02T03:02:04;102440.59;;;2.16;86.79
68230;BME280;55048;52.220;5.160;2023-03-02T03:04:31;102416.44;;;2.13;86.41
68230;BME280;55048;52.220;5.160;2023-03-02T03:06:59;102446.66;;;2.26;86.49
68230;BME280;55048;52.220;5.160;2023-03-02T03:09:26;102436.31;;;2.25;86.41
68230;BME280;55048;52.220;5.160;2023-03-02T03:12:29;102295.38;;;1.41;86.10
68230;BME280;55048;52.220;5.160;2023-03-02T03:14:47;102209.34;;;0.79;87.18
68230;BME280;55048;52.220;5.160;2023-03-02T03:17:13;102384.47;;;1.80;87.22
68230;BME280;55048;52.220;5.160;2023-03-02T03:19:51;102455.66;;;2.24;86.83
68230;BME280;55048;52.220;5.160;2023-03-02T03:22:17;102387.75;;;1.92;86.65
68230;BME280;55048;52.220;5.160;2023-03-02T03:24:45;102435.78;;;2.12;86.96
68230;BME280;55048;52.220;5.160;2023-03-02T03:27:14;102435.31;;;2.26;86.73
68230;BME280;55048;52.220;5.160;2023-03-02T03:29:42;102439.75;;;2.25;86.11
68230;BME280;55048;52.220;5.160;2023-03-02T03:32:10;102317.00;;;1.43;87.03
68230;BME280;55048;52.220;5.160;2023-03-02T03:34:36;102441.59;;;2.06;87.11
68230;BME280;55048;52.220;5.160;2023-03-02T03:37:11;102424.50;;;1.92;87.90
68230;BME280;55048;52.220;5.160;2023-03-02T03:39:36;102366.00;;;1.52;88.20
68230;BME280;55048;52.220;5.160;2023-03-02T03:42:04;102290.56;;;1.08;87.68
68230;BME280;55048;52.220;5.160;2023-03-02T03:44:30;102350.41;;;1.41;86.84
68230;BME280;55048;52.220;5.160;2023-03-02T03:46:56;102479.16;;;2.16;87.59
68230;BME280;55048;52.220;5.160;2023-03-02T03:49:22;102451.66;;;2.20;86.59
68230;BME280;55048;52.220;5.160;2023-03-02T03:51:48;102437.59;;;2.01;87.38
68230;BME280;55048;52.220;5.160;2023-03-02T03:54:13;102456.38;;;2.07;87.12
68230;BME280;55048;52.220;5.160;2023-03-02T03:56:46;102462.97;;;2.20;87.10
68230;BME280;55048;52.220;5.160;2023-03-02T03:59:18;102474.31;;;2.21;86.61
68230;BME280;55048;52.220;5.160;2023-03-02T04:01:54;102448.06;;;2.11;86.49
68230;BME280;55048;52.220;5.160;2023-03-02T04:04:25;102426.94;;;2.03;85.71
68230;BME280;55048;52.220;5.160;2023-03-02T04:06:51;102453.97;;;2.23;86.10
68230;BME280;55048;52.220;5.160;2023-03-02T04:09:17;102345.84;;;1.53;86.50
68230;BME280;55048;52.220;5.160;2023-03-02T04:11:46;102397.31;;;1.73;86.87
68230;BME280;55048;52.220;5.160;2023-03-02T04:14:13;102449.59;;;2.04;87.54
68230;BME280;55048;52.220;5.160;2023-03-02T04:16:40;102449.91;;;2.01;86.62
68230;BME280;55048;52.220;5.160;2023-03-02T04:19:06;102372.34;;;1.50;87.29
68230;BME280;55048;52.220;5.160;2023-03-02T04:21:40;102443.41;;;1.86;86.69
68230;BME280;55048;52.220;5.160;2023-03-02T04:24:06;102244.78;;;0.63;86.77
68230;BME280;55048;52.220;5.160;2023-03-02T04:26:33;102383.25;;;1.45;86.94
68230;BME280;55048;52.220;5.160;2023-03-02T04:28:59;102442.03;;;1.91;87.03
68230;BME280;55048;52.220;5.160;2023-03-02T04:31:25;102326.44;;;1.17;86.64
68230;BME280;55048;52.220;5.160;2023-03-02T04:33:50;102435.81;;;1.92;86.07
68230;BME280;55048;52.220;5.160;2023-03-02T04:36:16;102271.53;;;0.86;86.23
68230;BME280;55048;52.220;5.160;2023-03-02T04:38:45;102441.75;;;1.65;86.60
68230;BME280;55048;52.220;5.160;2023-03-02T04:41:10;102428.09;;;1.62;86.05
68230;BME280;55048;52.220;5.160;2023-03-02T04:43:36;102429.22;;;1.69;86.80
68230;BME280;55048;52.220;5.160;2023-03-02T04:46:01;102441.34;;;1.79;86.83
68230;BME280;55048;52.220;5.160;2023-03-02T04:48:27;102446.44;;;1.71;87.34
68230;BME280;55048;52.220;5.160;2023-03-02T04:50:53;102358.13;;;1.14;87.72
68230;BME280;55048;52.220;5.160;2023-03-02T04:53:18;102399.25;;;1.33;88.05
68230;BME280;55048;52.220;5.160;2023-03-02T04:55:44;102357.00;;;1.07;88.26
68230;BME280;55048;52.220;5.160;2023-03-02T04:58:09;102320.75;;;0.92;86.96
68230;BME280;55048;52.220;5.160;2023-03-02T05:00:35;102321.97;;;0.88;87.42
68230;BME280;55048;52.220;5.160;2023-03-02T05:03:02;102452.00;;;1.68;87.20
68230;BME280;55048;52.220;5.160;2023-03-02T05:05:28;102417.03;;;1.39;88.09
68230;BME280;55048;52.220;5.160;2023-03-02T05:07:55;102440.63;;;1.68;87.45
68230;BME280;55048;52.220;5.160;2023-03-02T05:10:24;102334.25;;;0.97;86.99
68230;BME280;55048;52.220;5.160;2023-03-02T05:12:50;102413.47;;;1.49;88.40
68230;BME280;55048;52.220;5.160;2023-03-02T05:15:39;102441.75;;;1.65;88.03
68230;BME280;55048;52.220;5.160;2023-03-02T05:18:07;102446.19;;;1.74;87.79
68230;BME280;55048;52.220;5.160;2023-03-02T05:20:37;102429.31;;;1.67;86.85
68230;BME280;55048;52.220;5.160;2023-03-02T05:23:05;102286.41;;;0.86;86.53
68230;BME280;55048;52.220;5.160;2023-03-02T05:25:32;102447.00;;;1.85;87.31
68230;BME280;55048;52.220;5.160;2023-03-02T05:27:58;102329.56;;;1.01;87.33
68230;BME280;55048;52.220;5.160;2023-03-02T05:30:24;102383.94;;;1.28;88.50
68230;BME280;55048;52.220;5.160;2023-03-02T05:32:50;102426.44;;;1.51;87.45
68230;BME280;55048;52.220;5.160;2023-03-02T05:35:17;102393.19;;;1.42;86.56
68230;BME280;55048;52.220;5.160;2023-03-02T05:37:42;102408.19;;;1.30;88.30
68230;BME280;55048;52.220;5.160;2023-03-02T05:40:12;102443.97;;;1.70;87.93
68230;BME280;55048;52.220;5.160;2023-03-02T05:42:38;102441.19;;;1.71;86.83
68230;BME280;55048;52.220;5.160;2023-03-02T05:45:05;102439.56;;;1.61;88.43
68230;BME280;55048;52.220;5.160;2023-03-02T05:50:06;102407.13;;;1.33;88.79
68230;BME280;55048;52.220;5.160;2023-03-02T05:52:31;102443.00;;;1.61;87.92
68230;BME280;55048;52.220;5.160;2023-03-02T05:54:57;102442.44;;;1.58;88.12
68230;BME280;55048;52.220;5.160;2023-03-02T05:57:22;102431.44;;;1.54;88.24
68230;BME280;55048;52.220;5.160;2023-03-02T05:59:48;102424.22;;;1.46;87.83
68230;BME280;55048;52.220;5.160;2023-03-02T06:02:15;102436.38;;;1.57;88.36
68230;BME280;55048;52.220;5.160;2023-03-02T06:04:40;102407.13;;;1.33;87.60
68230;BME280;55048;52.220;5.160;2023-03-02T06:07:09;102419.00;;;1.37;88.32
68230;BME280;55048;52.220;5.160;2023-03-02T06:09:37;102449.91;;;1.52;88.16
68230;BME280;55048;52.220;5.160;2023-03-02T06:12:02;102444.38;;;1.46;88.31
68230;BME280;55048;52.220;5.160;2023-03-02T06:14:28;102394.41;;;1.18;88.04
68230;BME280;55048;52.220;5.160;2023-03-02T06:16:53;102443.41;;;1.47;87.82
68230;BME280;55048;52.220;5.160;2023-03-02T06:19:19;102424.22;;;1.27;89.09
68230;BME280;55048;52.220;5.160;2023-03-02T06:21:44;102447.97;;;1.45;87.73
68230;BME280;55048;52.220;5.160;2023-03-02T06:24:10;102456.78;;;1.44;88.10
68230;BME280;55048;52.220;5.160;2023-03-02T06:26:35;102444.66;;;1.43;88.37
68230;BME280;55048;52.220;5.160;2023-03-02T06:29:00;102461.34;;;1.42;89.03
68230;BME280;55048;52.220;5.160;2023-03-02T06:31:26;102429.56;;;1.25;88.86
68230;BME280;55048;52.220;5.160;2023-03-02T06:33:51;102423.91;;;1.11;89.73
68230;BME280;55048;52.220;5.160;2023-03-02T06:36:16;102427.25;;;1.13;89.92
68230;BME280;55048;52.220;5.160;2023-03-02T06:38:42;102472.25;;;1.37;89.77
68230;BME280;55048;52.220;5.160;2023-03-02T06:41:07;102452.06;;;1.18;90.57
68230;BME280;55048;52.220;5.160;2023-03-02T06:43:33;102465.88;;;1.30;90.53
68230;BME280;55048;52.220;5.160;2023-03-02T06:45:58;102477.06;;;1.42;88.91
68230;BME280;55048;52.220;5.160;2023-03-02T06:48:25;102424.28;;;0.96;89.78
68230;BME280;55048;52.220;5.160;2023-03-02T06:50:51;102482.47;;;1.40;89.48
68230;BME280;55048;52.220;5.160;2023-03-02T06:53:16;102475.53;;;1.39;89.23
68230;BME280;55048;52.220;5.160;2023-03-02T06:55:46;102485.50;;;1.45;88.94
68230;BME280;55048;52.220;5.160;2023-03-02T06:58:11;102481.06;;;1.26;89.32
68230;BME280;55048;52.220;5.160;2023-03-02T07:00:38;102477.88;;;1.33;89.00
68230;BME280;55048;52.220;5.160;2023-03-02T07:03:03;102464.50;;;1.26;90.03
68230;BME280;55048;52.220;5.160;2023-03-02T07:05:29;102468.78;;;1.37;89.10
68230;BME280;55048;52.220;5.160;2023-03-02T07:07:59;102470.88;;;1.43;89.23
68230;BME280;55048;52.220;5.160;2023-03-02T07:10:25;102490.19;;;1.61;88.50
68230;BME280;55048;52.220;5.160;2023-03-02T07:12:51;102480.28;;;1.55;87.75
68230;BME280;55048;52.220;5.160;2023-03-02T07:15:18;102479.72;;;1.61;88.36
68230;BME280;55048;52.220;5.160;2023-03-02T07:17:44;102490.78;;;1.65;88.52
68230;BME280;55048;52.220;5.160;2023-03-02T07:20:15;102483.72;;;1.65;87.86
68230;BME280;55048;52.220;5.160;2023-03-02T07:22:41;102492.00;;;1.80;87.70
68230;BME280;55048;52.220;5.160;2023-03-02T07:25:08;102495.47;;;1.81;88.06
68230;BME280;55048;52.220;5.160;2023-03-02T07:27:34;102468.97;;;1.64;88.66
68230;BME280;55048;52.220;5.160;2023-03-02T07:29:59;102500.13;;;1.67;89.07
68230;BME280;55048;52.220;5.160;2023-03-02T07:32:25;102489.13;;;1.64;88.96
68230;BME280;55048;52.220;5.160;2023-03-02T07:34:51;102490.06;;;1.63;88.71
68230;BME280;55048;52.220;5.160;2023-03-02T07:37:16;102463.00;;;1.43;88.70
68230;BME280;55048;52.220;5.160;2023-03-02T07:39:42;102474.47;;;1.61;88.48
68230;BME280;55048;52.220;5.160;2023-03-02T07:42:07;102472.13;;;1.68;87.85
68230;BME280;55048;52.220;5.160;2023-03-02T07:44:36;102470.47;;;1.67;87.72
68230;BME280;55048;52.220;5.160;2023-03-02T07:47:01;102484.69;;;1.93;87.44
68230;BME280;55048;52.220;5.160;2023-03-02T07:49:27;102463.84;;;2.01;86.72
68230;BME280;55048;52.220;5.160;2023-03-02T07:51:52;102463.03;;;1.91;86.59
68230;BME280;55048;52.220;5.160;2023-03-02T07:54:17;102476.94;;;2.21;86.35
68230;BME280;55048;52.220;5.160;2023-03-02T07:56:43;102444.19;;;2.25;85.67
68230;BME280;55048;52.220;5.160;2023-03-02T07:59:10;102482.25;;;2.48;85.31
68230;BME280;55048;52.220;5.160;2023-03-02T08:01:36;102445.84;;;2.16;85.34
68230;BME280;55048;52.220;5.160;2023-03-02T08:04:01;102467.47;;;2.47;85.56
68230;BME280;55048;52.220;5.160;2023-03-02T08:06:27;102476.34;;;2.37;85.22
68230;BME280;55048;52.220;5.160;2023-03-02T08:08:52;102471.19;;;2.45;85.17
68230;BME280;55048;52.220;5.160;2023-03-02T08:11:18;102451.75;;;2.28;84.72
68230;BME280;55048;52.220;5.160;2023-03-02T08:13:44;102469.66;;;2.62;84.72
68230;BME280;55048;52.220;5.160;2023-03-02T08:16:12;102458.59;;;2.58;84.21
68230;BME280;55048;52.220;5.160;2023-03-02T08:18:38;102454.03;;;2.50;84.44
68230;BME280;55048;52.220;5.160;2023-03-02T08:21:10;102473.19;;;2.70;83.93
68230;BME280;55048;52.220;5.160;2023-03-02T08:23:36;102461.47;;;2.92;83.45
68230;BME280;55048;52.220;5.160;2023-03-02T08:26:02;102444.28;;;2.70;83.07
68230;BME280;55048;52.220;5.160;2023-03-02T08:28:27;102452.38;;;2.87;82.76
68230;BME280;55048;52.220;5.160;2023-03-02T08:30:59;102455.44;;;2.82;82.50
68230;BME280;55048;52.220;5.160;2023-03-02T08:33:26;102475.22;;;3.14;82.54
68230;BME280;55048;52.220;5.160;2023-03-02T08:36:03;102473.56;;;3.13;82.49
68230;BME280;55048;52.220;5.160;2023-03-02T08:38:30;102471.16;;;3.19;82.37
68230;BME280;55048;52.220;5.160;2023-03-02T08:40:56;102463.50;;;2.98;83.38
68230;BME280;55048;52.220;5.160;2023-03-02T08:43:23;102471.69;;;2.95;82.07
68230;BME280;55048;52.220;5.160;2023-03-02T08:45:53;102479.47;;;3.15;82.72
68230;BME280;55048;52.220;5.160;2023-03-02T08:48:20;102468.75;;;3.26;82.24
68230;BME280;55048;52.220;5.160;2023-03-02T08:51:00;102476.47;;;3.10;82.29
68230;BME280;55048;52.220;5.160;2023-03-02T08:53:28;102459.50;;;3.04;82.59
68230;BME280;55048;52.220;5.160;2023-03-02T08:55:54;102446.41;;;2.94;82.95
68230;BME280;55048;52.220;5.160;2023-03-02T08:58:19;102478.88;;;3.21;82.98
68230;BME280;55048;52.220;5.160;2023-03-02T09:00:45;102468.31;;;3.30;82.55
68230;BME280;55048;52.220;5.160;2023-03-02T09:03:11;102472.38;;;3.25;82.42
68230;BME280;55048;52.220;5.160;2023-03-02T09:05:36;102462.94;;;3.04;82.73
68230;BME280;55048;52.220;5.160;2023-03-02T09:08:02;102453.25;;;3.05;83.62
68230;BME280;55048;52.220;5.160;2023-03-02T09:10:28;102468.00;;;3.16;83.16
68230;BME280;55048;52.220;5.160;2023-03-02T09:12:53;102452.25;;;3.33;82.75
68230;BME280;55048;52.220;5.160;2023-03-02T09:15:19;102469.41;;;3.55;82.09
68230;BME280;55048;52.220;5.160;2023-03-02T09:17:44;102465.34;;;3.61;82.08
68230;BME280;55048;52.220;5.160;2023-03-02T09:20:10;102453.91;;;3.52;82.17
68230;BME280;55048;52.220;5.160;2023-03-02T09:22:35;102465.41;;;3.69;82.01
68230;BME280;55048;52.220;5.160;2023-03-02T09:25:03;102471.94;;;3.83;81.62
68230;BME280;55048;52.220;5.160;2023-03-02T09:27:28;102445.78;;;3.64;81.78
68230;BME280;55048;52.220;5.160;2023-03-02T09:29:54;102454.72;;;3.71;81.68
68230;BME280;55048;52.220;5.160;2023-03-02T09:32:20;102477.44;;;3.90;81.81
68230;BME280;55048;52.220;5.160;2023-03-02T09:34:45;102474.59;;;3.83;81.22
68230;BME280;55048;52.220;5.160;2023-03-02T09:37:11;102486.28;;;4.06;81.55
68230;BME280;55048;52.220;5.160;2023-03-02T09:39:37;102486.84;;;4.18;81.35
68230;BME280;55048;52.220;5.160;2023-03-02T09:42:25;102455.72;;;4.14;80.66
68230;BME280;55048;52.220;5.160;2023-03-02T09:47:51;102460.66;;;4.34;79.71
68230;BME280;55048;52.220;5.160;2023-03-02T09:50:32;102479.91;;;4.35;79.75
68230;BME280;55048;52.220;5.160;2023-03-02T09:55:50;102479.91;;;4.35;79.89
68230;BME280;55048;52.220;5.160;2023-03-02T09:58:18;102474.19;;;4.40;79.80
68230;BME280;55048;52.220;5.160;2023-03-02T10:00:45;102478.06;;;4.61;79.52
68230;BME280;55048;52.220;5.160;2023-03-02T10:03:21;102480.69;;;4.61;79.59
68230;BME280;55048;52.220;5.160;2023-03-02T10:05:49;102472.19;;;4.68;79.61
68230;BME280;55048;52.220;5.160;2023-03-02T10:08:27;102462.47;;;4.68;79.41
68230;BME280;55048;52.220;5.160;2023-03-02T10:11:04;102475.22;;;4.89;78.64
68230;BME280;55048;52.220;5.160;2023-03-02T10:18:56;102481.97;;;4.83;77.89
68230;BME280;55048;52.220;5.160;2023-03-02T10:21:49;102478.56;;;4.91;77.76
68230;BME280;55048;52.220;5.160;2023-03-02T10:24:37;102477.41;;;4.94;77.74
68230;BME280;55048;52.220;5.160;2023-03-02T10:32:22;102426.75;;;4.74;77.54
68230;BME280;55048;52.220;5.160;2023-03-02T10:34:50;102460.00;;;4.67;77.54
68230;BME280;55048;52.220;5.160;2023-03-02T10:37:19;102470.59;;;4.83;77.42
68230;BME280;55048;52.220;5.160;2023-03-02T10:39:46;102468.53;;;5.03;77.67
68230;BME280;55048;52.220;5.160;2023-03-02T10:42:38;102463.50;;;5.18;77.01
68230;BME280;55048;52.220;5.160;2023-03-02T10:45:26;102458.25;;;5.42;77.05
68230;BME280;55048;52.220;5.160;2023-03-02T10:48:00;102458.25;;;5.42;75.98
68230;BME280;55048;52.220;5.160;2023-03-02T10:50:26;102435.81;;;5.38;75.99
68230;BME280;55048;52.220;5.160;2023-03-02T10:52:51;102459.44;;;5.64;75.81
68230;BME280;55048;52.220;5.160;2023-03-02T10:55:17;102452.19;;;5.74;75.20
68230;BME280;55048;52.220;5.160;2023-03-02T10:57:44;102436.34;;;5.74;74.92
68230;BME280;55048;52.220;5.160;2023-03-02T11:00:15;102438.50;;;5.79;74.11
68230;BME280;55048;52.220;5.160;2023-03-02T11:02:52;102438.66;;;5.69;73.76
68230;BME280;55048;52.220;5.160;2023-03-02T11:05:26;102436.19;;;5.76;73.47
68230;BME280;55048;52.220;5.160;2023-03-02T11:08:04;102433.56;;;5.92;73.85
68230;BME280;55048;52.220;5.160;2023-03-02T11:10:54;102438.69;;;6.02;74.10
68230;BME280;55048;52.220;5.160;2023-03-02T11:16:03;102428.44;;;6.07;73.54
68230;BME280;55048;52.220;5.160;2023-03-02T11:18:40;102431.72;;;6.01;72.62
68230;BME280;55048;52.220;5.160;2023-03-02T11:21:10;102428.09;;;6.18;72.25
68230;BME280;55048;52.220;5.160;2023-03-02T11:26:29;102433.69;;;6.15;72.38
68230;BME280;55048;52.220;5.160;2023-03-02T11:31:46;102438.38;;;6.52;71.92
68230;BME280;55048;52.220;5.160;2023-03-02T11:42:24;102408.59;;;6.67;71.16
68230;BME280;55048;52.220;5.160;2023-03-02T11:44:51;102402.50;;;6.66;70.94
68230;BME280;55048;52.220;5.160;2023-03-02T11:47:17;102419.41;;;6.88;70.70
68230;BME280;55048;52.220;5.160;2023-03-02T11:49:53;102415.41;;;7.00;70.41
68230;BME280;55048;52.220;5.160;2023-03-02T11:52:22;102408.78;;;7.04;70.10
68230;BME280;55048;52.220;5.160;2023-03-02T11:54:53;102412.31;;;7.20;69.19
68230;BME280;55048;52.220;5.160;2023-03-02T11:59:49;102413.19;;;7.35;68.91
68230;BME280;55048;52.220;5.160;2023-03-02T12:02:15;102396.69;;;7.33;68.16
68230;BME280;55048;52.220;5.160;2023-03-02T12:04:41;102402.38;;;7.45;68.24
68230;BME280;55048;52.220;5.160;2023-03-02T12:07:22;102385.66;;;7.21;67.19
68230;BME280;55048;52.220;5.160;2023-03-02T12:09:57;102407.25;;;7.33;67.56
68230;BME280;55048;52.220;5.160;2023-03-02T12:12:33;102397.53;;;7.25;67.37
68230;BME280;55048;52.220;5.160;2023-03-02T12:14:59;102379.22;;;7.24;67.35
68230;BME280;55048;52.220;5.160;2023-03-02T12:22:44;102404.84;;;7.46;67.22
68230;BME280;55048;52.220;5.160;2023-03-02T12:27:50;102387.06;;;7.55;67.01
68230;BME280;55048;52.220;5.160;2023-03-02T12:35:36;102378.72;;;7.81;66.52
68230;BME280;55048;52.220;5.160;2023-03-02T12:38:28;102374.19;;;7.89;65.92
68230;BME280;55048;52.220;5.160;2023-03-02T12:43:41;102364.94;;;8.00;65.89
68230;BME280;55048;52.220;5.160;2023-03-02T12:46:28;102376.09;;;8.10;65.42
68230;BME280;55048;52.220;5.160;2023-03-02T12:49:13;102378.13;;;8.08;65.34
68230;BME280;55048;52.220;5.160;2023-03-02T12:51:54;102366.06;;;8.06;65.49
68230;BME280;55048;52.220;5.160;2023-03-02T12:54:25;102377.22;;;8.16;65.36
68230;BME280;55048;52.220;5.160;2023-03-02T12:57:22;102374.84;;;8.21;64.90
68230;BME280;55048;52.220;5.160;2023-03-02T12:59:52;102346.59;;;8.13;65.33
68230;BME280;55048;52.220;5.160;2023-03-02T13:02:24;102348.63;;;8.26;64.73
68230;BME280;55048;52.220;5.160;2023-03-02T13:04:55;102346.59;;;8.28;64.82
68230;BME280;55048;52.220;5.160;2023-03-02T13:07:38;102354.53;;;8.28;64.07
68230;BME280;55048;52.220;5.160;2023-03-02T13:10:27;102329.59;;;8.23;63.67
68230;BME280;55048;52.220;5.160;2023-03-02T13:12:53;102357.56;;;8.25;63.35
68230;BME280;55048;52.220;5.160;2023-03-02T13:15:19;102348.31;;;8.36;63.63
68230;BME280;55048;52.220;5.160;2023-03-02T13:17:52;102310.69;;;8.11;63.52
68230;BME280;55048;52.220;5.160;2023-03-02T13:20:19;102294.78;;;7.96;63.17
68230;BME280;55048;52.220;5.160;2023-03-02T13:22:46;102331.78;;;8.19;62.97
68230;BME280;55048;52.220;5.160;2023-03-02T13:25:27;102339.00;;;8.25;62.96
68230;BME280;55048;52.220;5.160;2023-03-02T13:27:58;102299.81;;;8.06;62.98
68230;BME280;55048;52.220;5.160;2023-03-02T13:30:33;102329.94;;;8.34;62.88
68230;BME280;55048;52.220;5.160;2023-03-02T13:33:13;102276.25;;;7.96;62.68
68230;BME280;55048;52.220;5.160;2023-03-02T13:35:46;102321.81;;;8.36;63.02
68230;BME280;55048;52.220;5.160;2023-03-02T13:38:17;102318.72;;;8.32;62.62
68230;BME280;55048;52.220;5.160;2023-03-02T13:41:03;102323.56;;;8.43;62.46
68230;BME280;55048;52.220;5.160;2023-03-02T13:45:59;102303.00;;;8.46;62.23
68230;BME280;55048;52.220;5.160;2023-03-02T13:48:25;102317.34;;;8.51;62.32
68230;BME280;55048;52.220;5.160;2023-03-02T13:51:16;102332.31;;;8.59;62.93
68230;BME280;55048;52.220;5.160;2023-03-02T13:53:49;102323.56;;;8.58;63.25
68230;BME280;55048;52.220;5.160;2023-03-02T13:56:16;102292.28;;;8.54;62.77
68230;BME280;55048;52.220;5.160;2023-03-02T13:58:43;102295.81;;;8.61;63.24
68230;BME280;55048;52.220;5.160;2023-03-02T14:01:10;102310.41;;;8.72;63.22
68230;BME280;55048;52.220;5.160;2023-03-02T14:03:37;102313.56;;;8.60;63.89
68230;BME280;55048;52.220;5.160;2023-03-02T14:06:03;102320.22;;;8.71;63.67
68230;BME280;55048;52.220;5.160;2023-03-02T14:08:30;102300.50;;;8.59;63.54
68230;BME280;55048;52.220;5.160;2023-03-02T14:10:57;102287.28;;;8.44;63.90
68230;BME280;55048;52.220;5.160;2023-03-02T14:13:27;102273.13;;;8.37;63.87
68230;BME280;55048;52.220;5.160;2023-03-02T14:15:54;102304.22;;;8.64;64.20
68230;BME280;55048;52.220;5.160;2023-03-02T14:18:37;102288.53;;;8.48;64.02